createdAt,value
2022-08-21T00:02:01.291Z,5.25
2022-08-21T00:04:20.054Z,5.30
2022-08-21T00:06:30.625Z,5.07
2022-08-21T00:08:39.114Z,4.75
2022-08-21T00:10:48.434Z,4.78
2022-08-21T00:12:59.449Z,5.38
2022-08-21T00:15:10.282Z,4.90
2022-08-21T00:17:19.696Z,4.60
2022-08-21T00:19:30.592Z,5.00
2022-08-21T00:21:39.739Z,4.65
2022-08-21T00:23:48.929Z,4.78
2022-08-21T00:25:56.811Z,4.78
2022-08-21T00:28:07.945Z,4.90
2022-08-21T00:30:23.065Z,4.30
2022-08-21T00:32:32.686Z,5.13
2022-08-21T00:34:40.541Z,5.38
2022-08-21T00:36:48.689Z,4.50
2022-08-21T00:38:56.577Z,4.78
2022-08-21T00:41:29.836Z,5.30
2022-08-21T00:43:43.007Z,5.18
2022-08-21T00:45:52.528Z,4.93
2022-08-21T00:48:01.014Z,4.68
2022-08-21T00:50:15.021Z,4.80
2022-08-21T00:52:33.941Z,5.15
2022-08-21T00:54:46.436Z,5.53
2022-08-21T00:57:01.234Z,5.60
2022-08-21T00:59:12.868Z,5.10
2022-08-21T01:01:21.384Z,4.60
2022-08-21T01:03:29.998Z,5.35
2022-08-21T01:05:38.595Z,5.75
2022-08-21T01:07:47.424Z,5.05
2022-08-21T01:09:57.266Z,5.05
2022-08-21T01:12:05.680Z,5.53
2022-08-21T01:14:19.004Z,5.72
2022-08-21T01:16:28.069Z,5.30
2022-08-21T01:18:36.338Z,5.55
2022-08-21T01:20:59.768Z,5.15
2022-08-21T01:23:10.885Z,5.80
2022-08-21T01:25:20.982Z,5.15
2022-08-21T01:27:30.450Z,5.55
2022-08-21T01:29:51.416Z,5.38
2022-08-21T01:32:00.625Z,5.43
2022-08-21T01:34:10.227Z,5.82
2022-08-21T01:36:21.444Z,5.30
2022-08-21T01:38:30.436Z,5.90
2022-08-21T01:40:39.698Z,6.22
2022-08-21T01:42:49.778Z,6.07
2022-08-21T01:44:58.119Z,5.90
2022-08-21T01:47:09.851Z,6.15
2022-08-21T01:49:18.320Z,6.13
2022-08-21T01:51:29.350Z,6.00
2022-08-21T01:53:39.626Z,6.03
2022-08-21T01:55:48.469Z,5.95
2022-08-21T01:57:57.343Z,7.25
2022-08-21T02:00:05.888Z,5.82
2022-08-21T02:02:19.869Z,5.93
2022-08-21T02:04:28.581Z,6.32
2022-08-21T02:06:39.473Z,7.22
2022-08-21T02:08:48.335Z,6.07
2022-08-21T02:10:56.393Z,6.68
2022-08-21T02:13:04.740Z,7.05
2022-08-21T02:15:13.231Z,6.18
2022-08-21T02:17:21.058Z,5.82
2022-08-21T02:19:29.176Z,7.32
2022-08-21T02:21:52.707Z,7.07
2022-08-21T02:24:00.675Z,6.15
2022-08-21T02:26:10.823Z,7.00
2022-08-21T02:28:19.229Z,7.90
2022-08-21T02:30:29.761Z,7.32
2022-08-21T02:32:37.610Z,7.70
2022-08-21T02:34:45.686Z,7.68
2022-08-21T02:36:59.327Z,8.20
2022-08-21T02:39:08.167Z,7.00
2022-08-21T02:41:19.153Z,8.57
2022-08-21T02:43:29.602Z,8.68
2022-08-21T02:45:38.856Z,7.40
2022-08-21T02:47:51.387Z,8.63
2022-08-21T02:49:59.243Z,7.45
2022-08-21T02:52:09.875Z,7.80
2022-08-21T02:54:17.786Z,9.70
2022-08-21T02:56:25.912Z,8.38
2022-08-21T02:58:44.380Z,7.45
2022-08-21T03:00:52.943Z,7.35
2022-08-21T03:03:02.065Z,7.05
2022-08-21T03:05:12.624Z,7.43
2022-08-21T03:07:23.185Z,8.07
2022-08-21T03:09:31.437Z,7.63
2022-08-21T03:11:39.693Z,7.80
2022-08-21T03:13:48.154Z,7.80
2022-08-21T03:15:56.072Z,8.38
2022-08-21T03:18:07.903Z,8.10
2022-08-21T03:20:17.963Z,9.27
2022-08-21T03:22:28.552Z,8.70
2022-08-21T03:24:38.858Z,9.00
2022-08-21T03:26:52.133Z,8.77
2022-08-21T03:29:00.534Z,8.68
2022-08-21T03:31:09.774Z,9.70
2022-08-21T03:33:20.731Z,9.32
2022-08-21T03:35:33.456Z,8.30
2022-08-21T03:37:44.258Z,9.75
2022-08-21T03:39:52.260Z,9.40
2022-08-21T03:42:00.955Z,9.63
2022-08-21T03:44:08.779Z,9.27
2022-08-21T03:46:16.973Z,9.15
2022-08-21T03:48:25.305Z,9.82
2022-08-21T03:50:36.076Z,10.02
2022-08-21T03:52:52.393Z,9.07
2022-08-21T03:55:00.270Z,10.00
2022-08-21T03:57:08.459Z,9.70
2022-08-21T03:59:17.553Z,9.20
2022-08-21T04:01:25.628Z,9.70
2022-08-21T04:03:35.903Z,9.50
2022-08-21T04:05:46.438Z,9.63
2022-08-21T04:08:09.585Z,9.38
2022-08-21T04:10:17.831Z,9.10
2022-08-21T04:12:26.026Z,9.68
2022-08-21T04:14:34.103Z,10.13
2022-08-21T04:16:42.125Z,9.27
2022-08-21T04:18:50.013Z,10.25
2022-08-21T04:20:59.129Z,10.15
2022-08-21T04:23:11.554Z,10.20
2022-08-21T04:25:31.804Z,10.32
2022-08-21T04:27:41.274Z,10.15
2022-08-21T04:29:49.073Z,11.40
2022-08-21T04:31:57.157Z,10.40
2022-08-21T04:34:05.915Z,10.07
2022-08-21T04:36:14.784Z,10.63
2022-08-21T04:38:25.739Z,10.80
2022-08-21T04:40:34.830Z,10.30
2022-08-21T04:42:48.051Z,10.77
2022-08-21T04:44:56.561Z,11.30
2022-08-21T04:47:08.127Z,11.25
2022-08-21T04:49:16.115Z,11.25
2022-08-21T04:51:29.416Z,9.95
2022-08-21T04:53:45.913Z,11.35
2022-08-21T04:55:54.983Z,12.18
2022-08-21T04:58:04.089Z,12.25
2022-08-21T05:00:15.034Z,11.40
2022-08-21T05:02:24.863Z,10.18
2022-08-21T05:04:38.470Z,9.88
2022-08-21T05:06:50.775Z,8.05
2022-08-21T05:09:02.925Z,7.22
2022-08-21T05:11:11.563Z,6.80
2022-08-21T05:13:22.047Z,6.03
2022-08-21T05:15:31.762Z,6.20
2022-08-21T05:17:40.060Z,5.65
2022-08-21T05:19:48.116Z,5.45
2022-08-21T05:21:56.394Z,5.45
2022-08-21T05:24:07.670Z,5.15
2022-08-21T05:26:18.629Z,4.72
2022-08-21T05:28:27.257Z,5.10
2022-08-21T05:30:35.085Z,4.07
2022-08-21T05:32:43.131Z,4.40
2022-08-21T05:34:51.497Z,4.47
2022-08-21T05:37:00.088Z,4.70
2022-08-21T05:39:12.695Z,4.27
2022-08-21T05:41:20.492Z,4.37
2022-08-21T05:43:29.755Z,4.57
2022-08-21T05:45:43.418Z,4.00
2022-08-21T05:47:52.208Z,4.23
2022-08-21T05:50:00.226Z,4.97
2022-08-21T05:52:08.725Z,4.50
2022-08-21T05:54:19.834Z,4.33
2022-08-21T05:56:27.689Z,4.13
2022-08-21T05:58:36.993Z,4.90
2022-08-21T06:00:45.776Z,4.57
2022-08-21T06:02:53.737Z,4.60
2022-08-21T06:05:01.894Z,4.23
2022-08-21T06:07:12.071Z,4.10
2022-08-21T06:09:22.521Z,3.60
2022-08-21T06:11:30.381Z,4.60
2022-08-21T06:13:40.086Z,4.43
2022-08-21T06:15:50.789Z,4.20
2022-08-21T06:17:58.882Z,3.87
2022-08-21T06:20:08.449Z,4.23
2022-08-21T06:22:16.700Z,4.03
2022-08-21T06:24:27.386Z,4.10
2022-08-21T06:26:35.591Z,3.97
2022-08-21T06:28:45.180Z,4.10
2022-08-21T06:30:53.515Z,4.43
2022-08-21T06:33:02.664Z,4.30
2022-08-21T06:35:11.595Z,4.67
2022-08-21T06:37:19.764Z,4.10
2022-08-21T06:39:32.420Z,4.00
2022-08-21T06:41:40.537Z,4.50
2022-08-21T06:43:50.453Z,3.63
2022-08-21T06:46:02.631Z,4.07
2022-08-21T06:48:20.634Z,4.77
2022-08-21T06:50:46.378Z,4.00
2022-08-21T06:53:04.845Z,4.00
2022-08-21T06:55:22.281Z,3.70
2022-08-21T06:57:31.059Z,4.13
2022-08-21T06:59:39.101Z,3.97
2022-08-21T07:01:47.542Z,4.07
2022-08-21T07:03:55.684Z,4.10
2022-08-21T07:06:05.768Z,4.00
2022-08-21T07:08:13.826Z,3.80
2022-08-21T07:10:24.496Z,3.97
2022-08-21T07:12:32.495Z,3.60
2022-08-21T07:14:40.527Z,4.17
2022-08-21T07:16:48.735Z,4.40
2022-08-21T07:18:58.546Z,3.50
2022-08-21T07:21:07.489Z,4.30
2022-08-21T07:23:22.433Z,3.50
2022-08-21T07:25:33.167Z,3.87
2022-08-21T07:27:41.122Z,4.40
2022-08-21T07:29:49.034Z,4.37
2022-08-21T07:31:57.836Z,4.23
2022-08-21T07:34:05.737Z,4.53
2022-08-21T07:36:15.576Z,3.97
2022-08-21T07:38:23.471Z,3.97
2022-08-21T07:40:34.171Z,3.83
2022-08-21T07:42:44.978Z,3.90
2022-08-21T07:44:53.142Z,4.60
2022-08-21T07:47:05.004Z,4.57
2022-08-21T07:49:12.894Z,4.60
2022-08-21T07:51:21.927Z,4.30
2022-08-21T07:53:29.922Z,3.43
2022-08-21T07:55:40.460Z,4.20
2022-08-21T07:57:49.110Z,3.90
2022-08-21T07:59:56.875Z,4.43
2022-08-21T08:02:05.237Z,3.77
2022-08-21T08:04:13.003Z,4.40
2022-08-21T08:06:21.891Z,4.37
2022-08-21T08:08:30.130Z,4.33
2022-08-21T08:10:42.095Z,4.90
2022-08-21T08:12:53.072Z,4.53
2022-08-21T08:15:01.604Z,5.03
2022-08-21T08:17:09.825Z,5.20
2022-08-21T08:19:17.745Z,5.17
2022-08-21T08:21:26.638Z,4.93
2022-08-21T08:23:35.238Z,5.37
2022-08-21T08:25:46.131Z,5.30
2022-08-21T08:27:55.481Z,5.43
2022-08-21T08:30:03.409Z,5.53
2022-08-21T08:32:11.454Z,5.87
2022-08-21T08:34:25.427Z,5.10
2022-08-21T08:36:37.573Z,5.70
2022-08-21T08:38:48.979Z,5.67
2022-08-21T08:41:06.481Z,5.83
2022-08-21T08:43:15.070Z,6.40
2022-08-21T08:45:27.355Z,5.63
2022-08-21T08:47:38.838Z,5.97
2022-08-21T08:49:57.439Z,5.43
2022-08-21T08:52:09.583Z,5.50
2022-08-21T08:54:24.737Z,5.87
2022-08-21T08:56:37.639Z,6.30
2022-08-21T08:58:48.690Z,5.50
2022-08-21T09:00:58.767Z,6.27
2022-08-21T09:03:07.988Z,5.90
2022-08-21T09:05:28.016Z,6.50
2022-08-21T09:07:43.119Z,5.90
2022-08-21T09:10:05.290Z,5.80
2022-08-21T09:12:30.099Z,5.70
2022-08-21T09:14:54.838Z,5.73
2022-08-21T09:17:08.569Z,4.90
2022-08-21T09:19:32.145Z,5.37
2022-08-21T09:21:47.600Z,5.40
2022-08-21T09:24:06.143Z,6.03
2022-08-21T09:26:17.955Z,5.30
2022-08-21T09:28:28.415Z,5.57
2022-08-21T09:30:36.796Z,4.87
2022-08-21T09:32:45.032Z,4.40
2022-08-21T09:35:01.701Z,4.73
2022-08-21T09:37:20.552Z,4.00
2022-08-21T09:39:31.009Z,4.80
2022-08-21T09:41:40.584Z,5.30
2022-08-21T09:43:56.977Z,4.67
2022-08-21T09:46:13.337Z,3.87
2022-08-21T09:48:26.197Z,4.50
2022-08-21T09:50:34.912Z,4.50
2022-08-21T09:52:49.854Z,4.60
2022-08-21T09:55:00.621Z,4.03
2022-08-21T09:57:30.395Z,4.17
2022-08-21T09:59:41.220Z,4.67
2022-08-21T10:01:51.903Z,4.50
2022-08-21T10:04:08.935Z,3.70
2022-08-21T10:06:27.661Z,4.50
2022-08-21T10:08:37.388Z,4.50
2022-08-21T10:10:45.268Z,5.00
2022-08-21T10:13:00.161Z,8.47
2022-08-21T10:15:20.339Z,4.87
2022-08-21T10:17:37.537Z,6.70
2022-08-21T10:19:50.868Z,5.23
2022-08-21T10:22:07.117Z,4.27
2022-08-21T10:24:30.909Z,4.00
2022-08-21T10:26:53.061Z,4.60
2022-08-21T10:29:10.009Z,4.80
2022-08-21T10:31:30.142Z,4.73
2022-08-21T10:33:48.179Z,4.53
2022-08-21T10:36:04.339Z,4.30
2022-08-21T10:38:55.533Z,3.37
2022-08-21T10:41:16.276Z,4.17
2022-08-21T10:43:33.072Z,4.60
2022-08-21T10:45:53.022Z,4.40
2022-08-21T10:48:09.070Z,5.07
2022-08-21T10:50:29.044Z,4.53
2022-08-21T10:52:52.646Z,4.07
2022-08-21T10:55:08.717Z,3.60
2022-08-21T10:57:31.895Z,4.07
2022-08-21T10:59:52.079Z,5.83
2022-08-21T11:02:06.268Z,3.83
2022-08-21T11:04:23.732Z,5.00
2022-08-21T11:06:36.522Z,14.03
2022-08-21T11:08:47.746Z,8.97
2022-08-21T11:11:01.029Z,5.53
2022-08-21T11:13:15.379Z,5.20
2022-08-21T11:15:33.070Z,5.57
2022-08-21T11:17:51.579Z,4.50
2022-08-21T11:20:09.383Z,4.40
2022-08-21T11:22:26.602Z,5.07
2022-08-21T11:24:44.122Z,4.97
2022-08-21T11:26:56.661Z,4.60
2022-08-21T11:29:13.958Z,4.90
2022-08-21T11:31:40.590Z,4.83
2022-08-21T11:34:02.515Z,5.20
2022-08-21T11:36:24.249Z,4.87
2022-08-21T11:38:39.926Z,4.60
2022-08-21T11:41:06.452Z,5.90
2022-08-21T11:43:20.190Z,6.07
2022-08-21T11:45:36.886Z,5.50
2022-08-21T11:48:00.111Z,4.80
2022-08-21T11:50:35.111Z,4.83
2022-08-21T11:52:52.907Z,5.30
2022-08-21T11:55:06.600Z,5.40
2022-08-21T11:57:22.247Z,5.70
2022-08-21T11:59:40.879Z,4.93
2022-08-21T12:01:52.112Z,5.20
2022-08-21T12:04:07.273Z,4.63
2022-08-21T12:06:24.113Z,5.10
2022-08-21T12:08:38.070Z,5.20
2022-08-21T12:11:02.248Z,5.23
2022-08-21T12:13:14.773Z,4.93
2022-08-21T12:15:31.551Z,4.20
2022-08-21T12:17:42.532Z,4.33
2022-08-21T12:20:02.010Z,4.43
2022-08-21T12:22:15.458Z,4.90
2022-08-21T12:24:39.616Z,4.73
2022-08-21T12:26:54.685Z,5.37
2022-08-21T12:29:25.303Z,4.50
2022-08-21T12:31:33.113Z,4.77
2022-08-21T12:33:43.650Z,4.20
2022-08-21T12:35:55.106Z,4.70
2022-08-21T12:38:11.262Z,4.10
2022-08-21T12:40:27.356Z,4.77
2022-08-21T12:42:42.387Z,4.70
2022-08-21T12:44:54.854Z,4.17
2022-08-21T12:47:08.123Z,4.73
2022-08-21T12:49:20.651Z,3.87
2022-08-21T12:51:38.488Z,3.97
2022-08-21T12:53:57.704Z,4.03
2022-08-21T12:56:16.214Z,4.10
2022-08-21T12:58:30.175Z,4.77
2022-08-21T13:00:41.105Z,3.70
2022-08-21T13:02:58.611Z,3.50
2022-08-21T13:05:10.883Z,3.70
2022-08-21T13:07:27.857Z,3.70
2022-08-21T13:09:39.593Z,3.80
2022-08-21T13:11:53.022Z,4.27
2022-08-21T13:14:04.950Z,3.87
2022-08-21T13:16:14.520Z,3.67
2022-08-21T13:18:27.669Z,3.83
2022-08-21T13:20:39.315Z,3.80
2022-08-21T13:22:51.056Z,4.23
2022-08-21T13:25:06.822Z,3.03
2022-08-21T13:27:28.963Z,3.10
2022-08-21T13:29:38.806Z,3.23
2022-08-21T13:31:53.618Z,3.70
2022-08-21T13:34:01.622Z,4.07
2022-08-21T13:36:15.134Z,3.70
2022-08-21T13:38:27.109Z,3.03
2022-08-21T13:40:48.828Z,3.50
2022-08-21T13:43:01.099Z,3.80
2022-08-21T13:45:16.803Z,3.47
2022-08-21T13:47:25.100Z,3.37
2022-08-21T13:49:35.759Z,3.50
2022-08-21T13:51:44.172Z,3.17
2022-08-21T13:53:56.786Z,4.37
2022-08-21T13:56:07.205Z,4.13
2022-08-21T13:58:29.542Z,4.00
2022-08-21T14:00:41.880Z,3.83
2022-08-21T14:02:54.350Z,3.67
2022-08-21T14:05:05.077Z,3.70
2022-08-21T14:07:20.547Z,3.17
2022-08-21T14:09:33.036Z,3.70
2022-08-21T14:11:41.508Z,3.53
2022-08-21T14:13:56.100Z,3.50
2022-08-21T14:16:06.455Z,3.60
2022-08-21T14:18:21.349Z,3.33
2022-08-21T14:20:34.426Z,3.60
2022-08-21T14:22:46.456Z,3.67
2022-08-21T14:25:03.740Z,3.23
2022-08-21T14:27:11.955Z,3.57
2022-08-21T14:29:25.278Z,3.57
2022-08-21T14:31:36.543Z,3.23
2022-08-21T14:33:52.337Z,3.67
2022-08-21T14:36:02.074Z,3.60
2022-08-21T14:38:16.433Z,4.33
2022-08-21T14:40:27.995Z,3.80
2022-08-21T14:42:38.297Z,3.37
2022-08-21T14:44:50.879Z,3.63
2022-08-21T14:46:59.688Z,4.00
2022-08-21T14:49:10.968Z,3.50
2022-08-21T14:51:18.767Z,3.57
2022-08-21T14:53:26.592Z,3.80
2022-08-21T14:55:56.786Z,3.93
2022-08-21T14:58:05.685Z,3.80
2022-08-21T15:00:20.776Z,3.70
2022-08-21T15:02:31.224Z,3.53
2022-08-21T15:04:39.545Z,3.67
2022-08-21T15:06:47.458Z,3.83
2022-08-21T15:08:55.461Z,3.40
2022-08-21T15:11:14.618Z,3.60
2022-08-21T15:13:26.400Z,3.10
2022-08-21T15:15:42.886Z,3.13
2022-08-21T15:17:50.787Z,3.60
2022-08-21T15:19:58.686Z,3.70
2022-08-21T15:22:15.337Z,2.87
2022-08-21T15:24:26.971Z,3.20
2022-08-21T15:26:35.000Z,3.00
2022-08-21T15:28:43.388Z,3.50
2022-08-21T15:30:54.972Z,3.60
2022-08-21T15:33:04.414Z,3.17
2022-08-21T15:35:12.810Z,3.57
2022-08-21T15:37:24.506Z,3.50
2022-08-21T15:39:37.438Z,3.80
2022-08-21T15:41:46.862Z,3.20
2022-08-21T15:43:57.105Z,2.90
2022-08-21T15:46:07.671Z,3.53
2022-08-21T15:48:15.805Z,3.13
2022-08-21T15:50:24.156Z,3.90
2022-08-21T15:52:31.985Z,3.53
2022-08-21T15:54:39.789Z,3.80
2022-08-21T15:56:52.079Z,3.10
2022-08-21T15:59:04.075Z,3.20
2022-08-21T16:01:14.955Z,3.60
2022-08-21T16:03:23.157Z,3.10
2022-08-21T16:05:31.255Z,3.30
2022-08-21T16:07:39.078Z,3.57
2022-08-21T16:09:49.021Z,3.60
2022-08-21T16:11:57.062Z,2.80
2022-08-21T16:14:05.214Z,3.30
2022-08-21T16:16:18.796Z,3.50
2022-08-21T16:18:27.022Z,3.70
2022-08-21T16:20:34.894Z,4.07
2022-08-21T16:22:55.047Z,3.73
2022-08-21T16:25:02.985Z,3.57
2022-08-21T16:27:12.317Z,3.90
2022-08-21T16:29:22.858Z,3.60
2022-08-21T16:31:34.651Z,3.87
2022-08-21T16:33:45.959Z,3.80
2022-08-21T16:35:54.719Z,3.60
2022-08-21T16:38:03.055Z,4.07
2022-08-21T16:40:12.811Z,3.80
2022-08-21T16:42:24.622Z,4.17
2022-08-21T16:44:34.588Z,4.00
2022-08-21T16:46:45.784Z,4.30
2022-08-21T16:48:54.651Z,4.20
2022-08-21T16:51:02.540Z,4.10
2022-08-21T16:53:11.363Z,4.10
2022-08-21T16:55:19.361Z,4.17
2022-08-21T16:57:29.464Z,4.20
2022-08-21T16:59:37.677Z,3.97
2022-08-21T17:01:48.893Z,3.53
2022-08-21T17:03:57.918Z,4.00
2022-08-21T17:06:06.557Z,4.47
2022-08-21T17:08:14.907Z,4.07
2022-08-21T17:10:23.604Z,4.20
2022-08-21T17:12:31.437Z,4.23
2022-08-21T17:14:39.713Z,3.73
2022-08-21T17:16:54.060Z,4.10
2022-08-21T17:19:01.907Z,4.10
2022-08-21T17:21:09.862Z,3.63
2022-08-21T17:23:18.854Z,4.30
2022-08-21T17:25:27.648Z,3.67
2022-08-21T17:27:36.597Z,3.40
2022-08-21T17:29:44.906Z,4.10
2022-08-21T17:31:55.787Z,4.10
2022-08-21T17:34:04.130Z,4.00
2022-08-21T17:36:12.782Z,3.87
2022-08-21T17:38:20.823Z,4.13
2022-08-21T17:40:28.941Z,4.00
2022-08-21T17:42:37.823Z,3.73
2022-08-21T17:44:48.556Z,3.40
2022-08-21T17:46:59.018Z,4.00
2022-08-21T17:49:08.274Z,3.53
2022-08-21T17:51:18.533Z,3.67
2022-08-21T17:53:26.603Z,3.50
2022-08-21T17:55:36.237Z,4.07
2022-08-21T17:57:46.703Z,3.40
2022-08-21T17:59:58.184Z,3.30
2022-08-21T18:02:17.475Z,3.43
2022-08-21T18:04:28.119Z,3.85
2022-08-21T18:06:36.039Z,2.80
2022-08-21T18:08:43.935Z,3.17
2022-08-21T18:10:53.862Z,3.55
2022-08-21T18:13:05.824Z,3.80
2022-08-21T18:15:16.540Z,3.58
2022-08-21T18:17:30.357Z,4.35
2022-08-21T18:19:49.303Z,4.00
2022-08-21T18:22:03.897Z,4.40
2022-08-21T18:24:12.918Z,4.30
2022-08-21T18:26:27.972Z,3.67
2022-08-21T18:28:36.410Z,3.80
2022-08-21T18:30:46.132Z,3.95
2022-08-21T18:33:00.552Z,4.28
2022-08-21T18:35:11.371Z,4.10
2022-08-21T18:37:19.459Z,4.05
2022-08-21T18:39:36.922Z,4.20
2022-08-21T18:41:47.634Z,4.57
2022-08-21T18:43:57.501Z,4.00
2022-08-21T18:46:05.837Z,3.83
2022-08-21T18:48:18.499Z,4.07
2022-08-21T18:50:29.184Z,3.65
2022-08-21T18:52:37.063Z,4.13
2022-08-21T18:54:45.318Z,4.40
2022-08-21T18:56:54.954Z,4.30
2022-08-21T18:59:04.344Z,4.18
2022-08-21T19:01:12.416Z,4.20
2022-08-21T19:03:25.413Z,4.10
2022-08-21T19:05:33.377Z,3.95
2022-08-21T19:07:42.211Z,3.78
2022-08-21T19:10:14.114Z,4.07
2022-08-21T19:12:23.899Z,4.43
2022-08-21T19:14:39.181Z,4.05
2022-08-21T19:16:50.224Z,4.35
2022-08-21T19:19:04.884Z,4.60
2022-08-21T19:21:12.786Z,4.18
2022-08-21T19:25:59.856Z,4.32
2022-08-21T19:28:12.315Z,4.28
2022-08-21T19:30:20.499Z,4.10
2022-08-21T19:32:28.442Z,4.43
2022-08-21T19:34:41.658Z,4.30
2022-08-21T19:36:50.658Z,4.75
2022-08-21T19:38:59.189Z,4.90
2022-08-21T19:41:09.173Z,5.25
2022-08-21T19:43:17.172Z,4.20
2022-08-21T19:45:37.962Z,5.35
2022-08-21T19:47:51.340Z,5.05
2022-08-21T19:50:05.123Z,5.25
2022-08-21T19:52:25.997Z,4.70
2022-08-21T19:54:36.836Z,4.40
2022-08-21T19:56:45.454Z,5.50
2022-08-21T19:58:55.872Z,5.35
2022-08-21T20:01:03.930Z,5.78
2022-08-21T20:03:21.731Z,5.68
2022-08-21T20:05:39.568Z,5.28
2022-08-21T20:07:48.379Z,4.88
2022-08-21T20:09:57.405Z,5.13
2022-08-21T20:12:10.250Z,5.32
2022-08-21T20:14:22.519Z,5.88
2022-08-21T20:16:31.244Z,5.22
2022-08-21T20:18:41.447Z,5.50
2022-08-21T20:20:53.482Z,5.70
2022-08-21T20:23:01.321Z,5.22
2022-08-21T20:25:21.105Z,5.35
2022-08-21T20:27:30.326Z,4.80
2022-08-21T20:29:39.937Z,4.88
2022-08-21T20:31:47.906Z,5.57
2022-08-21T20:33:56.551Z,4.93
2022-08-21T20:36:07.728Z,5.40
2022-08-21T20:38:17.573Z,5.63
2022-08-21T20:40:32.064Z,5.20
2022-08-21T20:42:44.879Z,4.80
2022-08-21T20:44:54.473Z,4.95
2022-08-21T20:47:08.509Z,5.50
2022-08-21T20:49:23.640Z,5.35
2022-08-21T20:51:39.450Z,5.00
2022-08-21T20:53:52.587Z,5.70
2022-08-21T20:56:02.290Z,6.22
2022-08-21T20:58:13.812Z,5.40
2022-08-21T21:00:26.251Z,5.53
2022-08-21T21:02:48.616Z,5.45
2022-08-21T21:05:03.359Z,5.47
2022-08-21T21:07:21.393Z,5.35
2022-08-21T21:09:40.368Z,5.38
2022-08-21T21:11:53.710Z,6.38
2022-08-21T21:14:05.600Z,5.95
2022-08-21T21:16:17.098Z,6.07
2022-08-21T21:18:32.573Z,6.70
2022-08-21T21:20:45.859Z,6.30
2022-08-21T21:23:01.072Z,6.25
2022-08-21T21:25:15.844Z,6.05
2022-08-21T21:27:34.944Z,6.35
2022-08-21T21:29:47.331Z,6.05
2022-08-21T21:31:57.385Z,6.22
2022-08-21T21:34:05.399Z,6.95
2022-08-21T21:36:25.254Z,6.03
2022-08-21T21:38:51.455Z,5.38
2022-08-21T21:41:10.064Z,5.55
2022-08-21T21:43:34.073Z,6.10
2022-08-21T21:45:53.955Z,6.10
2022-08-21T21:48:13.456Z,6.05
2022-08-21T21:50:42.718Z,5.55
2022-08-21T21:53:12.463Z,5.82
2022-08-21T21:55:36.816Z,5.35
2022-08-21T21:58:05.190Z,5.30
2022-08-21T22:00:18.935Z,5.53
2022-08-21T22:02:39.051Z,6.00
2022-08-21T22:04:58.131Z,5.50
2022-08-21T22:07:14.759Z,5.10
2022-08-21T22:09:35.683Z,5.55
2022-08-21T22:11:58.648Z,5.25
2022-08-21T22:14:13.432Z,5.40
2022-08-21T22:16:22.243Z,5.57
2022-08-21T22:18:38.574Z,5.75
2022-08-21T22:20:58.209Z,5.55
2022-08-21T22:25:41.766Z,5.63
2022-08-21T22:28:00.691Z,5.10
2022-08-21T22:30:13.405Z,6.15
2022-08-21T22:32:30.296Z,5.47
2022-08-21T22:34:38.445Z,6.15
2022-08-21T22:36:51.692Z,6.07
2022-08-21T22:39:00.304Z,5.85
2022-08-21T22:41:19.162Z,6.03
2022-08-21T22:43:30.824Z,6.57
2022-08-21T22:45:58.829Z,5.47
2022-08-21T22:48:11.187Z,5.88
2022-08-21T22:50:31.861Z,6.55
2022-08-21T22:52:47.978Z,6.20
2022-08-21T22:55:00.390Z,6.13
2022-08-21T22:57:11.563Z,6.35
2022-08-21T22:59:30.512Z,6.32
2022-08-21T23:01:44.215Z,6.63
2022-08-21T23:06:28.325Z,6.90
2022-08-21T23:08:39.801Z,7.03
2022-08-21T23:10:48.574Z,6.68
2022-08-21T23:13:03.565Z,6.75
2022-08-21T23:15:20.086Z,6.03
2022-08-21T23:17:39.969Z,5.95
2022-08-21T23:20:02.141Z,6.47
2022-08-21T23:22:28.225Z,6.53
2022-08-21T23:24:51.253Z,6.68
2022-08-21T23:27:09.205Z,6.35
2022-08-21T23:29:28.214Z,6.90
2022-08-21T23:31:47.678Z,6.20
2022-08-21T23:34:15.727Z,6.05
2022-08-21T23:36:46.521Z,5.93
2022-08-21T23:39:10.093Z,5.88
2022-08-21T23:41:34.400Z,6.28
2022-08-21T23:43:54.142Z,7.40
2022-08-21T23:46:33.960Z,6.70
2022-08-21T23:49:11.688Z,6.57
2022-08-21T23:51:33.840Z,7.05
2022-08-21T23:53:58.717Z,7.25
2022-08-21T23:56:27.120Z,6.35
2022-08-21T23:58:43.484Z,6.75
